Main page


Airports :

Mumbai, India

Chhatrapati Shivaji International Airport

latitude: 19-07N, longitude: 072-51E, elevation: 8 m

Current weather observation

The report was made 16 minutes ago, at 06:00 UTC
Wind 6 kt from the North/Northeast
Temperature 32°C
Humidity 46%
Pressure 1013 hPa
Visibility: 4500 m

METAR: VABB 200600Z 03006KT 4500 FU NSC 32/19 Q1013 BECMG 5000 FU

Time: 11:46 (06:16 UTC)


The report was made 1 hour and 16 minutes ago, at 05:00 UTC
Forecast valid from 20 at 06 UTC to 21 at 12 UTC
Wind 8 kt from the West
Visibility: 5000 m
from 20 at 13 UTC to 20 at 15 UTC
Wind 6 kt from the Northwest
Visibility: 3000 m
from 20 at 21 UTC to 20 at 23 UTC
Wind 5 kt from the North/Northeast
Few clouds at a height of 2000 ft
from 21 at 03 UTC to 21 at 05 UTC
Wind 5 kt from the South/Southeast
from 21 at 06 UTC to 21 at 08 UTC
Visibility: 5000 m

TAF: VABB 200500Z 2006/2112 26008KT 5000 FU NSC BECMG 2013/2015 32006KT 3000 FU BECMG 2021/2023 03005KT FEW020 BECMG 2103/2105 15005KT BECMG 2106/2108 5000 FU NSC

Weather observations and forecasts of more than 4000 airports (METAR and TAF reports).

The available stations are represented by yellow and red dots on the map.

Hover mouse over dot to see the name of the station.

Then click to see weather observations and forecasts.

To change the map : click on the green buttons with a black cross to zoom in, on the green button with a dash to zoom out, or on the green arrows for adjacent maps.